Weather at King Salmon Airport

Public forecast

Using degrees Fahrenheit for public forecast. Weather courtesy of forecast.io.

Current aviation weather report (METAR) for King Salmon Airport

Retrieved 2021/04/19 05:54 UTC (50 minutes ago):

PAKN 190554Z 06007KT 10SM SCT060 BKN100 BKN230 07/ A3002

Aviation forecast (TAF) for King Salmon Airport

Retrieved 2021/04/19 06:51 UTC (0 seconds ago):

TAF PAKN 190535Z 1906/2006 04011KT P6SM SCT060 BKN100 FM191900 05013G23KT P6SM SKC